sensor_id;sensor_type;location;lat;lon;timestamp;P1;durP1;ratioP1;P2;durP2;ratioP2
19554;SDS011;9924;50.828;6.440;2022-07-29T00:02:26;3.22;;;1.48;;
19554;SDS011;9924;50.828;6.440;2022-07-29T00:04:53;3.85;;;1.77;;
19554;SDS011;9924;50.828;6.440;2022-07-29T00:07:19;4.22;;;1.90;;
19554;SDS011;9924;50.828;6.440;2022-07-29T00:09:45;6.43;;;1.70;;
19554;SDS011;9924;50.828;6.440;2022-07-29T00:12:10;3.95;;;1.40;;
19554;SDS011;9924;50.828;6.440;2022-07-29T00:14:36;3.45;;;1.58;;
19554;SDS011;9924;50.828;6.440;2022-07-29T00:17:02;4.35;;;1.67;;
19554;SDS011;9924;50.828;6.440;2022-07-29T00:19:28;4.15;;;1.50;;
19554;SDS011;9924;50.828;6.440;2022-07-29T00:21:54;5.60;;;2.00;;
19554;SDS011;9924;50.828;6.440;2022-07-29T00:24:19;5.57;;;2.17;;
19554;SDS011;9924;50.828;6.440;2022-07-29T00:26:45;4.78;;;1.67;;
19554;SDS011;9924;50.828;6.440;2022-07-29T00:29:11;5.07;;;1.80;;
19554;SDS011;9924;50.828;6.440;2022-07-29T00:31:36;4.35;;;1.80;;
19554;SDS011;9924;50.828;6.440;2022-07-29T00:34:02;9.50;;;1.83;;
19554;SDS011;9924;50.828;6.440;2022-07-29T00:36:28;2.47;;;1.70;;
19554;SDS011;9924;50.828;6.440;2022-07-29T00:38:54;3.22;;;1.60;;
19554;SDS011;9924;50.828;6.440;2022-07-29T00:41:20;6.10;;;1.98;;
19554;SDS011;9924;50.828;6.440;2022-07-29T00:43:46;4.13;;;1.60;;
19554;SDS011;9924;50.828;6.440;2022-07-29T00:46:12;4.55;;;1.48;;
19554;SDS011;9924;50.828;6.440;2022-07-29T00:48:37;7.18;;;1.70;;
19554;SDS011;9924;50.828;6.440;2022-07-29T00:51:04;5.78;;;1.77;;
19554;SDS011;9924;50.828;6.440;2022-07-29T00:53:31;5.47;;;1.77;;
19554;SDS011;9924;50.828;6.440;2022-07-29T00:55:57;4.35;;;1.88;;
19554;SDS011;9924;50.828;6.440;2022-07-29T00:58:24;3.28;;;1.67;;
19554;SDS011;9924;50.828;6.440;2022-07-29T01:00:51;4.97;;;1.70;;
19554;SDS011;9924;50.828;6.440;2022-07-29T01:03:17;3.92;;;1.88;;
19554;SDS011;9924;50.828;6.440;2022-07-29T01:05:44;5.25;;;2.38;;
19554;SDS011;9924;50.828;6.440;2022-07-29T01:08:11;5.25;;;2.08;;
19554;SDS011;9924;50.828;6.440;2022-07-29T01:10:39;3.13;;;1.60;;
19554;SDS011;9924;50.828;6.440;2022-07-29T01:13:07;4.13;;;1.73;;
19554;SDS011;9924;50.828;6.440;2022-07-29T01:15:34;8.60;;;2.20;;
19554;SDS011;9924;50.828;6.440;2022-07-29T01:18:11;3.03;;;1.65;;
19554;SDS011;9924;50.828;6.440;2022-07-29T01:37:29;6.43;;;1.58;;
19554;SDS011;9924;50.828;6.440;2022-07-29T01:40:03;7.03;;;1.65;;
19554;SDS011;9924;50.828;6.440;2022-07-29T01:42:41;6.00;;;1.90;;
19554;SDS011;9924;50.828;6.440;2022-07-29T01:46:11;5.05;;;1.90;;
19554;SDS011;9924;50.828;6.440;2022-07-29T01:50:47;6.57;;;2.05;;
19554;SDS011;9924;50.828;6.440;2022-07-29T01:53:18;5.57;;;2.20;;
19554;SDS011;9924;50.828;6.440;2022-07-29T01:55:51;6.43;;;2.20;;
19554;SDS011;9924;50.828;6.440;2022-07-29T01:58:19;6.15;;;1.83;;
19554;SDS011;9924;50.828;6.440;2022-07-29T02:00:46;10.15;;;2.00;;
19554;SDS011;9924;50.828;6.440;2022-07-29T02:03:14;5.82;;;2.10;;
19554;SDS011;9924;50.828;6.440;2022-07-29T02:05:42;11.80;;;2.10;;
19554;SDS011;9924;50.828;6.440;2022-07-29T02:08:11;10.95;;;2.63;;
19554;SDS011;9924;50.828;6.440;2022-07-29T02:10:38;4.85;;;1.60;;
19554;SDS011;9924;50.828;6.440;2022-07-29T02:13:06;19.38;;;2.70;;
19554;SDS011;9924;50.828;6.440;2022-07-29T02:15:34;6.45;;;1.83;;
19554;SDS011;9924;50.828;6.440;2022-07-29T02:18:03;5.03;;;1.58;;
19554;SDS011;9924;50.828;6.440;2022-07-29T02:20:32;7.68;;;1.90;;
19554;SDS011;9924;50.828;6.440;2022-07-29T02:22:59;8.10;;;1.90;;
19554;SDS011;9924;50.828;6.440;2022-07-29T02:25:27;8.68;;;1.80;;
19554;SDS011;9924;50.828;6.440;2022-07-29T02:27:54;8.52;;;2.03;;
19554;SDS011;9924;50.828;6.440;2022-07-29T02:30:21;6.65;;;1.50;;
19554;SDS011;9924;50.828;6.440;2022-07-29T02:32:49;10.30;;;1.80;;
19554;SDS011;9924;50.828;6.440;2022-07-29T02:35:15;4.45;;;1.92;;
19554;SDS011;9924;50.828;6.440;2022-07-29T02:37:43;5.13;;;1.30;;
19554;SDS011;9924;50.828;6.440;2022-07-29T02:40:30;8.40;;;2.10;;
19554;SDS011;9924;50.828;6.440;2022-07-29T02:42:58;7.63;;;1.70;;
19554;SDS011;9924;50.828;6.440;2022-07-29T02:45:25;6.95;;;1.50;;
19554;SDS011;9924;50.828;6.440;2022-07-29T02:47:52;4.97;;;1.75;;
19554;SDS011;9924;50.828;6.440;2022-07-29T02:50:21;3.60;;;1.40;;
19554;SDS011;9924;50.828;6.440;2022-07-29T02:53:02;3.88;;;1.80;;
19554;SDS011;9924;50.828;6.440;2022-07-29T02:55:36;3.63;;;1.30;;
19554;SDS011;9924;50.828;6.440;2022-07-29T02:58:07;7.75;;;1.50;;
19554;SDS011;9924;50.828;6.440;2022-07-29T03:00:36;6.32;;;1.77;;
19554;SDS011;9924;50.828;6.440;2022-07-29T03:03:05;4.15;;;1.27;;
19554;SDS011;9924;50.828;6.440;2022-07-29T03:05:38;5.80;;;1.70;;
19554;SDS011;9924;50.828;6.440;2022-07-29T03:08:05;4.00;;;1.85;;
19554;SDS011;9924;50.828;6.440;2022-07-29T03:10:34;6.65;;;1.95;;
19554;SDS011;9924;50.828;6.440;2022-07-29T03:13:02;3.10;;;1.60;;
19554;SDS011;9924;50.828;6.440;2022-07-29T03:15:30;8.85;;;1.70;;
19554;SDS011;9924;50.828;6.440;2022-07-29T03:17:56;6.90;;;1.90;;
19554;SDS011;9924;50.828;6.440;2022-07-29T03:20:23;4.22;;;1.80;;
19554;SDS011;9924;50.828;6.440;2022-07-29T03:22:50;4.82;;;1.48;;
19554;SDS011;9924;50.828;6.440;2022-07-29T03:25:16;5.47;;;1.73;;
19554;SDS011;9924;50.828;6.440;2022-07-29T03:27:43;3.70;;;1.40;;
19554;SDS011;9924;50.828;6.440;2022-07-29T03:30:10;5.10;;;1.58;;
19554;SDS011;9924;50.828;6.440;2022-07-29T03:32:38;7.95;;;2.17;;
19554;SDS011;9924;50.828;6.440;2022-07-29T03:35:05;4.45;;;1.60;;
19554;SDS011;9924;50.828;6.440;2022-07-29T03:37:31;4.85;;;2.03;;
19554;SDS011;9924;50.828;6.440;2022-07-29T03:39:58;4.50;;;1.83;;
19554;SDS011;9924;50.828;6.440;2022-07-29T03:42:30;7.80;;;1.70;;
19554;SDS011;9924;50.828;6.440;2022-07-29T03:44:59;9.07;;;1.60;;
19554;SDS011;9924;50.828;6.440;2022-07-29T03:47:28;6.72;;;1.60;;
19554;SDS011;9924;50.828;6.440;2022-07-29T03:49:59;5.68;;;1.80;;
19554;SDS011;9924;50.828;6.440;2022-07-29T03:52:27;8.43;;;1.60;;
19554;SDS011;9924;50.828;6.440;2022-07-29T03:54:53;8.05;;;1.80;;
19554;SDS011;9924;50.828;6.440;2022-07-29T03:57:20;7.78;;;1.85;;
19554;SDS011;9924;50.828;6.440;2022-07-29T03:59:50;8.35;;;1.83;;
19554;SDS011;9924;50.828;6.440;2022-07-29T04:02:17;6.63;;;1.80;;
19554;SDS011;9924;50.828;6.440;2022-07-29T04:04:43;7.95;;;1.80;;
19554;SDS011;9924;50.828;6.440;2022-07-29T04:07:11;5.35;;;1.77;;
19554;SDS011;9924;50.828;6.440;2022-07-29T04:09:37;4.00;;;1.88;;
19554;SDS011;9924;50.828;6.440;2022-07-29T04:12:03;6.10;;;1.40;;
19554;SDS011;9924;50.828;6.440;2022-07-29T04:14:33;7.35;;;1.90;;
19554;SDS011;9924;50.828;6.440;2022-07-29T04:17:03;10.55;;;2.25;;
19554;SDS011;9924;50.828;6.440;2022-07-29T04:19:30;4.47;;;1.52;;
19554;SDS011;9924;50.828;6.440;2022-07-29T04:21:59;4.28;;;1.50;;
19554;SDS011;9924;50.828;6.440;2022-07-29T04:24:26;5.65;;;1.70;;
19554;SDS011;9924;50.828;6.440;2022-07-29T04:26:53;7.13;;;1.80;;
19554;SDS011;9924;50.828;6.440;2022-07-29T04:29:19;10.35;;;2.10;;
19554;SDS011;9924;50.828;6.440;2022-07-29T04:31:45;3.83;;;1.73;;
19554;SDS011;9924;50.828;6.440;2022-07-29T04:34:11;3.53;;;2.00;;
19554;SDS011;9924;50.828;6.440;2022-07-29T04:36:37;2.97;;;1.70;;
19554;SDS011;9924;50.828;6.440;2022-07-29T04:39:03;9.77;;;1.92;;
19554;SDS011;9924;50.828;6.440;2022-07-29T04:41:29;8.98;;;1.80;;
19554;SDS011;9924;50.828;6.440;2022-07-29T04:43:55;6.88;;;2.20;;
19554;SDS011;9924;50.828;6.440;2022-07-29T04:46:21;5.80;;;2.00;;
19554;SDS011;9924;50.828;6.440;2022-07-29T04:48:47;7.90;;;2.08;;
19554;SDS011;9924;50.828;6.440;2022-07-29T04:51:16;5.13;;;1.98;;
19554;SDS011;9924;50.828;6.440;2022-07-29T04:53:41;11.07;;;2.75;;
19554;SDS011;9924;50.828;6.440;2022-07-29T04:56:07;7.72;;;1.80;;
19554;SDS011;9924;50.828;6.440;2022-07-29T04:58:34;5.90;;;1.70;;
19554;SDS011;9924;50.828;6.440;2022-07-29T05:01:00;3.45;;;1.70;;
19554;SDS011;9924;50.828;6.440;2022-07-29T05:03:26;10.35;;;2.30;;
19554;SDS011;9924;50.828;6.440;2022-07-29T05:05:51;5.07;;;2.33;;
19554;SDS011;9924;50.828;6.440;2022-07-29T05:08:17;9.88;;;1.73;;
19554;SDS011;9924;50.828;6.440;2022-07-29T05:10:43;4.05;;;1.48;;
19554;SDS011;9924;50.828;6.440;2022-07-29T05:13:10;3.45;;;1.50;;
19554;SDS011;9924;50.828;6.440;2022-07-29T05:15:36;4.68;;;1.92;;
19554;SDS011;9924;50.828;6.440;2022-07-29T05:18:02;6.93;;;1.70;;
19554;SDS011;9924;50.828;6.440;2022-07-29T05:20:29;5.32;;;1.90;;
19554;SDS011;9924;50.828;6.440;2022-07-29T05:22:56;4.30;;;1.60;;
19554;SDS011;9924;50.828;6.440;2022-07-29T05:25:23;5.13;;;1.98;;
19554;SDS011;9924;50.828;6.440;2022-07-29T05:27:49;5.13;;;1.77;;
19554;SDS011;9924;50.828;6.440;2022-07-29T05:30:15;5.03;;;1.60;;
19554;SDS011;9924;50.828;6.440;2022-07-29T05:32:40;6.80;;;1.42;;
19554;SDS011;9924;50.828;6.440;2022-07-29T05:35:06;4.50;;;2.10;;
19554;SDS011;9924;50.828;6.440;2022-07-29T05:37:32;5.05;;;2.00;;
19554;SDS011;9924;50.828;6.440;2022-07-29T05:39:58;5.07;;;1.95;;
19554;SDS011;9924;50.828;6.440;2022-07-29T05:42:24;6.05;;;1.83;;
19554;SDS011;9924;50.828;6.440;2022-07-29T05:44:50;6.15;;;2.30;;
19554;SDS011;9924;50.828;6.440;2022-07-29T05:47:16;7.20;;;1.70;;
19554;SDS011;9924;50.828;6.440;2022-07-29T05:49:42;4.68;;;1.67;;
19554;SDS011;9924;50.828;6.440;2022-07-29T05:52:08;4.15;;;1.67;;
19554;SDS011;9924;50.828;6.440;2022-07-29T05:54:34;7.40;;;2.13;;
19554;SDS011;9924;50.828;6.440;2022-07-29T05:57:00;4.55;;;1.75;;
19554;SDS011;9924;50.828;6.440;2022-07-29T05:59:26;2.25;;;1.77;;
19554;SDS011;9924;50.828;6.440;2022-07-29T06:01:52;5.85;;;2.13;;
19554;SDS011;9924;50.828;6.440;2022-07-29T06:04:18;7.95;;;2.17;;
19554;SDS011;9924;50.828;6.440;2022-07-29T06:06:44;5.22;;;2.00;;
19554;SDS011;9924;50.828;6.440;2022-07-29T06:09:10;5.13;;;1.65;;
19554;SDS011;9924;50.828;6.440;2022-07-29T06:11:36;3.15;;;1.80;;
19554;SDS011;9924;50.828;6.440;2022-07-29T06:14:02;5.75;;;1.80;;
19554;SDS011;9924;50.828;6.440;2022-07-29T06:16:28;3.33;;;1.73;;
19554;SDS011;9924;50.828;6.440;2022-07-29T06:18:54;5.38;;;1.85;;
19554;SDS011;9924;50.828;6.440;2022-07-29T06:21:20;6.53;;;2.20;;
19554;SDS011;9924;50.828;6.440;2022-07-29T06:23:46;5.63;;;1.58;;
19554;SDS011;9924;50.828;6.440;2022-07-29T06:26:12;6.65;;;2.28;;
19554;SDS011;9924;50.828;6.440;2022-07-29T06:28:38;7.80;;;2.25;;
19554;SDS011;9924;50.828;6.440;2022-07-29T06:31:04;5.40;;;2.78;;
19554;SDS011;9924;50.828;6.440;2022-07-29T06:33:30;4.80;;;2.17;;
19554;SDS011;9924;50.828;6.440;2022-07-29T06:35:56;5.93;;;2.30;;
19554;SDS011;9924;50.828;6.440;2022-07-29T06:38:22;7.20;;;2.28;;
19554;SDS011;9924;50.828;6.440;2022-07-29T06:40:48;4.32;;;2.00;;
19554;SDS011;9924;50.828;6.440;2022-07-29T06:45:59;5.10;;;2.20;;
19554;SDS011;9924;50.828;6.440;2022-07-29T06:48:26;7.63;;;2.10;;
19554;SDS011;9924;50.828;6.440;2022-07-29T06:50:53;5.07;;;2.40;;
19554;SDS011;9924;50.828;6.440;2022-07-29T06:53:19;5.53;;;2.50;;
19554;SDS011;9924;50.828;6.440;2022-07-29T06:55:45;6.13;;;2.40;;
19554;SDS011;9924;50.828;6.440;2022-07-29T06:58:11;5.28;;;2.70;;
19554;SDS011;9924;50.828;6.440;2022-07-29T07:00:39;9.23;;;2.80;;
19554;SDS011;9924;50.828;6.440;2022-07-29T07:03:05;5.80;;;2.70;;
19554;SDS011;9924;50.828;6.440;2022-07-29T07:05:31;5.65;;;2.60;;
19554;SDS011;9924;50.828;6.440;2022-07-29T07:07:57;5.13;;;2.53;;
19554;SDS011;9924;50.828;6.440;2022-07-29T07:10:22;5.38;;;3.08;;
19554;SDS011;9924;50.828;6.440;2022-07-29T07:12:48;8.45;;;2.67;;
19554;SDS011;9924;50.828;6.440;2022-07-29T07:15:14;6.60;;;2.85;;
19554;SDS011;9924;50.828;6.440;2022-07-29T07:17:39;8.02;;;2.90;;
19554;SDS011;9924;50.828;6.440;2022-07-29T07:20:05;4.20;;;2.72;;
19554;SDS011;9924;50.828;6.440;2022-07-29T07:22:31;6.20;;;2.95;;
19554;SDS011;9924;50.828;6.440;2022-07-29T07:24:57;6.28;;;3.22;;
19554;SDS011;9924;50.828;6.440;2022-07-29T07:27:23;9.73;;;4.07;;
19554;SDS011;9924;50.828;6.440;2022-07-29T07:29:49;9.15;;;2.78;;
19554;SDS011;9924;50.828;6.440;2022-07-29T07:32:15;7.80;;;3.10;;
19554;SDS011;9924;50.828;6.440;2022-07-29T07:34:42;8.23;;;3.42;;
19554;SDS011;9924;50.828;6.440;2022-07-29T07:37:08;7.45;;;3.38;;
19554;SDS011;9924;50.828;6.440;2022-07-29T07:39:34;7.90;;;3.25;;
19554;SDS011;9924;50.828;6.440;2022-07-29T07:42:00;7.07;;;3.40;;
19554;SDS011;9924;50.828;6.440;2022-07-29T07:44:26;6.93;;;3.08;;
19554;SDS011;9924;50.828;6.440;2022-07-29T07:46:52;9.85;;;3.30;;
19554;SDS011;9924;50.828;6.440;2022-07-29T07:49:18;6.10;;;3.00;;
19554;SDS011;9924;50.828;6.440;2022-07-29T07:51:43;5.32;;;3.25;;
19554;SDS011;9924;50.828;6.440;2022-07-29T07:54:10;7.07;;;3.40;;
19554;SDS011;9924;50.828;6.440;2022-07-29T07:56:36;7.32;;;3.08;;
19554;SDS011;9924;50.828;6.440;2022-07-29T07:59:02;6.00;;;2.95;;
19554;SDS011;9924;50.828;6.440;2022-07-29T08:01:27;5.18;;;2.90;;
19554;SDS011;9924;50.828;6.440;2022-07-29T08:03:53;7.32;;;3.00;;
19554;SDS011;9924;50.828;6.440;2022-07-29T08:06:19;6.95;;;3.00;;
19554;SDS011;9924;50.828;6.440;2022-07-29T08:08:45;5.47;;;2.80;;
19554;SDS011;9924;50.828;6.440;2022-07-29T08:11:10;10.30;;;2.97;;
19554;SDS011;9924;50.828;6.440;2022-07-29T08:13:37;6.90;;;2.75;;
19554;SDS011;9924;50.828;6.440;2022-07-29T08:16:03;4.93;;;2.30;;
19554;SDS011;9924;50.828;6.440;2022-07-29T08:18:40;11.80;;;2.50;;
19554;SDS011;9924;50.828;6.440;2022-07-29T08:21:07;6.75;;;2.30;;
19554;SDS011;9924;50.828;6.440;2022-07-29T08:23:33;5.68;;;2.53;;
19554;SDS011;9924;50.828;6.440;2022-07-29T08:26:10;7.30;;;2.25;;
19554;SDS011;9924;50.828;6.440;2022-07-29T08:28:42;9.38;;;2.60;;
19554;SDS011;9924;50.828;6.440;2022-07-29T08:31:14;6.10;;;2.45;;
19554;SDS011;9924;50.828;6.440;2022-07-29T08:33:40;7.47;;;2.63;;
19554;SDS011;9924;50.828;6.440;2022-07-29T08:36:07;6.35;;;2.55;;
19554;SDS011;9924;50.828;6.440;2022-07-29T08:38:33;5.82;;;2.10;;
19554;SDS011;9924;50.828;6.440;2022-07-29T08:41:02;4.75;;;1.95;;
19554;SDS011;9924;50.828;6.440;2022-07-29T08:43:28;6.15;;;1.92;;
19554;SDS011;9924;50.828;6.440;2022-07-29T08:45:54;6.03;;;2.67;;
19554;SDS011;9924;50.828;6.440;2022-07-29T08:48:21;5.90;;;2.10;;
19554;SDS011;9924;50.828;6.440;2022-07-29T08:50:51;6.68;;;2.05;;
19554;SDS011;9924;50.828;6.440;2022-07-29T08:53:20;6.47;;;2.05;;
19554;SDS011;9924;50.828;6.440;2022-07-29T08:55:50;7.30;;;2.33;;
19554;SDS011;9924;50.828;6.440;2022-07-29T08:58:21;6.10;;;2.47;;
19554;SDS011;9924;50.828;6.440;2022-07-29T09:00:50;6.32;;;2.50;;
19554;SDS011;9924;50.828;6.440;2022-07-29T09:03:20;3.97;;;2.17;;
19554;SDS011;9924;50.828;6.440;2022-07-29T09:05:49;4.68;;;2.63;;
19554;SDS011;9924;50.828;6.440;2022-07-29T09:08:16;5.15;;;2.30;;
19554;SDS011;9924;50.828;6.440;2022-07-29T09:10:43;8.68;;;2.58;;
19554;SDS011;9924;50.828;6.440;2022-07-29T09:13:09;5.15;;;2.38;;
19554;SDS011;9924;50.828;6.440;2022-07-29T09:15:35;7.47;;;2.50;;
19554;SDS011;9924;50.828;6.440;2022-07-29T09:18:01;3.67;;;2.25;;
19554;SDS011;9924;50.828;6.440;2022-07-29T09:20:27;5.00;;;2.40;;
19554;SDS011;9924;50.828;6.440;2022-07-29T09:23:12;5.35;;;2.25;;
19554;SDS011;9924;50.828;6.440;2022-07-29T09:25:41;4.10;;;2.35;;
19554;SDS011;9924;50.828;6.440;2022-07-29T09:28:07;6.07;;;2.53;;
19554;SDS011;9924;50.828;6.440;2022-07-29T09:33:23;3.70;;;2.30;;
19554;SDS011;9924;50.828;6.440;2022-07-29T09:36:03;5.15;;;2.10;;
19554;SDS011;9924;50.828;6.440;2022-07-29T09:38:30;6.28;;;2.22;;
19554;SDS011;9924;50.828;6.440;2022-07-29T09:40:57;7.43;;;2.10;;
19554;SDS011;9924;50.828;6.440;2022-07-29T09:43:24;4.35;;;2.30;;
19554;SDS011;9924;50.828;6.440;2022-07-29T09:45:50;6.07;;;2.20;;
19554;SDS011;9924;50.828;6.440;2022-07-29T09:48:17;4.10;;;2.33;;
19554;SDS011;9924;50.828;6.440;2022-07-29T09:50:48;9.73;;;2.13;;
19554;SDS011;9924;50.828;6.440;2022-07-29T09:56:13;4.60;;;1.67;;
19554;SDS011;9924;50.828;6.440;2022-07-29T09:58:39;5.10;;;2.10;;
19554;SDS011;9924;50.828;6.440;2022-07-29T10:01:05;3.58;;;1.85;;
19554;SDS011;9924;50.828;6.440;2022-07-29T10:03:31;3.53;;;1.40;;
19554;SDS011;9924;50.828;6.440;2022-07-29T10:06:06;4.40;;;1.80;;
19554;SDS011;9924;50.828;6.440;2022-07-29T10:08:34;5.53;;;2.30;;
19554;SDS011;9924;50.828;6.440;2022-07-29T10:11:13;5.22;;;1.90;;
19554;SDS011;9924;50.828;6.440;2022-07-29T10:13:41;5.78;;;2.38;;
19554;SDS011;9924;50.828;6.440;2022-07-29T10:16:08;4.43;;;2.45;;
19554;SDS011;9924;50.828;6.440;2022-07-29T10:18:34;3.65;;;1.90;;
19554;SDS011;9924;50.828;6.440;2022-07-29T10:21:00;7.38;;;2.10;;
19554;SDS011;9924;50.828;6.440;2022-07-29T10:23:29;4.75;;;1.90;;
19554;SDS011;9924;50.828;6.440;2022-07-29T10:25:56;4.65;;;2.33;;
19554;SDS011;9924;50.828;6.440;2022-07-29T10:28:22;9.70;;;2.47;;
19554;SDS011;9924;50.828;6.440;2022-07-29T10:30:50;4.22;;;2.20;;
19554;SDS011;9924;50.828;6.440;2022-07-29T10:42:27;7.18;;;3.20;;
19554;SDS011;9924;50.828;6.440;2022-07-29T10:44:55;7.35;;;3.38;;
19554;SDS011;9924;50.828;6.440;2022-07-29T10:49:55;8.32;;;3.20;;
19554;SDS011;9924;50.828;6.440;2022-07-29T15:02:27;5.72;;;1.77;;
19554;SDS011;9924;50.828;6.440;2022-07-29T15:04:53;4.28;;;1.63;;
19554;SDS011;9924;50.828;6.440;2022-07-29T15:07:18;3.17;;;1.70;;
19554;SDS011;9924;50.828;6.440;2022-07-29T15:09:44;2.03;;;1.83;;
19554;SDS011;9924;50.828;6.440;2022-07-29T15:12:10;4.07;;;1.80;;
19554;SDS011;9924;50.828;6.440;2022-07-29T15:14:36;1.73;;;1.40;;
19554;SDS011;9924;50.828;6.440;2022-07-29T15:17:02;5.35;;;1.70;;
19554;SDS011;9924;50.828;6.440;2022-07-29T15:19:28;2.85;;;1.73;;
19554;SDS011;9924;50.828;6.440;2022-07-29T15:21:53;2.47;;;1.70;;
19554;SDS011;9924;50.828;6.440;2022-07-29T15:24:19;3.10;;;1.52;;
19554;SDS011;9924;50.828;6.440;2022-07-29T15:26:45;3.58;;;2.13;;
19554;SDS011;9924;50.828;6.440;2022-07-29T15:29:12;5.00;;;1.80;;
19554;SDS011;9924;50.828;6.440;2022-07-29T15:31:39;2.58;;;1.60;;
19554;SDS011;9924;50.828;6.440;2022-07-29T15:34:05;2.03;;;1.45;;
19554;SDS011;9924;50.828;6.440;2022-07-29T15:36:31;4.78;;;1.65;;
19554;SDS011;9924;50.828;6.440;2022-07-29T15:38:57;2.53;;;1.15;;
19554;SDS011;9924;50.828;6.440;2022-07-29T15:41:23;3.60;;;1.88;;
19554;SDS011;9924;50.828;6.440;2022-07-29T15:43:49;2.70;;;1.42;;
19554;SDS011;9924;50.828;6.440;2022-07-29T15:46:16;4.15;;;1.92;;
19554;SDS011;9924;50.828;6.440;2022-07-29T15:49:02;3.70;;;1.70;;
19554;SDS011;9924;50.828;6.440;2022-07-29T15:51:29;3.28;;;1.50;;
19554;SDS011;9924;50.828;6.440;2022-07-29T15:53:54;4.03;;;1.95;;
19554;SDS011;9924;50.828;6.440;2022-07-29T15:56:20;3.25;;;1.73;;
19554;SDS011;9924;50.828;6.440;2022-07-29T15:58:47;4.43;;;1.92;;
19554;SDS011;9924;50.828;6.440;2022-07-29T16:01:13;1.88;;;1.50;;
19554;SDS011;9924;50.828;6.440;2022-07-29T16:03:38;2.85;;;1.90;;
19554;SDS011;9924;50.828;6.440;2022-07-29T16:06:04;3.35;;;1.95;;
19554;SDS011;9924;50.828;6.440;2022-07-29T16:08:30;3.25;;;1.90;;
19554;SDS011;9924;50.828;6.440;2022-07-29T16:10:56;4.68;;;1.85;;
19554;SDS011;9924;50.828;6.440;2022-07-29T16:13:22;2.67;;;1.95;;
19554;SDS011;9924;50.828;6.440;2022-07-29T16:15:48;2.75;;;1.70;;
19554;SDS011;9924;50.828;6.440;2022-07-29T16:18:14;2.92;;;1.80;;
19554;SDS011;9924;50.828;6.440;2022-07-29T16:20:40;5.53;;;1.70;;
19554;SDS011;9924;50.828;6.440;2022-07-29T16:23:07;3.72;;;1.70;;
19554;SDS011;9924;50.828;6.440;2022-07-29T16:25:42;3.83;;;1.88;;
19554;SDS011;9924;50.828;6.440;2022-07-29T16:28:08;7.57;;;2.33;;
19554;SDS011;9924;50.828;6.440;2022-07-29T16:30:35;4.65;;;2.15;;
19554;SDS011;9924;50.828;6.440;2022-07-29T16:33:01;4.93;;;1.90;;
19554;SDS011;9924;50.828;6.440;2022-07-29T16:35:27;3.95;;;1.90;;
19554;SDS011;9924;50.828;6.440;2022-07-29T16:37:54;3.05;;;2.13;;
19554;SDS011;9924;50.828;6.440;2022-07-29T16:40:21;4.47;;;1.98;;
19554;SDS011;9924;50.828;6.440;2022-07-29T16:42:47;4.85;;;2.22;;
19554;SDS011;9924;50.828;6.440;2022-07-29T16:45:13;3.20;;;2.13;;
19554;SDS011;9924;50.828;6.440;2022-07-29T16:47:40;3.30;;;2.22;;
19554;SDS011;9924;50.828;6.440;2022-07-29T16:50:07;4.28;;;2.20;;
19554;SDS011;9924;50.828;6.440;2022-07-29T16:52:33;3.88;;;2.20;;
19554;SDS011;9924;50.828;6.440;2022-07-29T16:55:00;2.47;;;2.10;;
19554;SDS011;9924;50.828;6.440;2022-07-29T16:57:25;2.63;;;1.98;;
19554;SDS011;9924;50.828;6.440;2022-07-29T16:59:51;3.90;;;2.40;;
19554;SDS011;9924;50.828;6.440;2022-07-29T17:02:17;4.05;;;2.40;;
19554;SDS011;9924;50.828;6.440;2022-07-29T17:04:43;3.55;;;2.25;;
19554;SDS011;9924;50.828;6.440;2022-07-29T17:07:08;8.75;;;2.90;;
19554;SDS011;9924;50.828;6.440;2022-07-29T17:09:34;5.90;;;2.90;;
19554;SDS011;9924;50.828;6.440;2022-07-29T17:12:00;4.75;;;3.63;;
19554;SDS011;9924;50.828;6.440;2022-07-29T17:14:27;6.68;;;2.35;;
19554;SDS011;9924;50.828;6.440;2022-07-29T17:16:56;4.85;;;2.47;;
19554;SDS011;9924;50.828;6.440;2022-07-29T17:19:24;4.90;;;2.42;;
19554;SDS011;9924;50.828;6.440;2022-07-29T17:21:50;5.30;;;2.58;;
19554;SDS011;9924;50.828;6.440;2022-07-29T17:24:16;6.20;;;2.97;;
19554;SDS011;9924;50.828;6.440;2022-07-29T17:26:42;6.10;;;2.40;;
19554;SDS011;9924;50.828;6.440;2022-07-29T17:29:11;6.20;;;2.33;;
19554;SDS011;9924;50.828;6.440;2022-07-29T17:31:37;5.70;;;2.60;;
19554;SDS011;9924;50.828;6.440;2022-07-29T17:34:03;3.10;;;2.25;;
19554;SDS011;9924;50.828;6.440;2022-07-29T17:36:30;6.22;;;2.20;;
19554;SDS011;9924;50.828;6.440;2022-07-29T17:38:57;8.60;;;2.60;;
19554;SDS011;9924;50.828;6.440;2022-07-29T17:41:26;6.50;;;2.30;;
19554;SDS011;9924;50.828;6.440;2022-07-29T17:43:53;3.20;;;2.03;;
19554;SDS011;9924;50.828;6.440;2022-07-29T17:46:19;7.22;;;2.35;;
19554;SDS011;9924;50.828;6.440;2022-07-29T17:48:47;6.45;;;2.97;;
19554;SDS011;9924;50.828;6.440;2022-07-29T17:51:13;4.60;;;2.50;;
19554;SDS011;9924;50.828;6.440;2022-07-29T17:53:39;4.88;;;2.22;;
19554;SDS011;9924;50.828;6.440;2022-07-29T17:56:05;4.95;;;2.38;;
19554;SDS011;9924;50.828;6.440;2022-07-29T17:58:32;5.10;;;2.35;;
19554;SDS011;9924;50.828;6.440;2022-07-29T18:00:58;5.85;;;2.13;;
19554;SDS011;9924;50.828;6.440;2022-07-29T18:03:24;7.07;;;3.00;;
19554;SDS011;9924;50.828;6.440;2022-07-29T18:05:50;5.45;;;2.63;;
19554;SDS011;9924;50.828;6.440;2022-07-29T18:08:17;4.78;;;2.15;;
19554;SDS011;9924;50.828;6.440;2022-07-29T18:10:43;5.80;;;2.90;;
19554;SDS011;9924;50.828;6.440;2022-07-29T18:13:10;4.78;;;2.53;;
19554;SDS011;9924;50.828;6.440;2022-07-29T18:15:37;4.55;;;2.70;;
19554;SDS011;9924;50.828;6.440;2022-07-29T18:18:03;3.53;;;2.65;;
19554;SDS011;9924;50.828;6.440;2022-07-29T18:20:29;6.95;;;2.67;;
19554;SDS011;9924;50.828;6.440;2022-07-29T18:22:55;5.90;;;2.92;;
19554;SDS011;9924;50.828;6.440;2022-07-29T18:25:21;7.03;;;3.13;;
19554;SDS011;9924;50.828;6.440;2022-07-29T18:27:47;3.90;;;2.80;;
19554;SDS011;9924;50.828;6.440;2022-07-29T18:30:14;7.07;;;2.53;;
19554;SDS011;9924;50.828;6.440;2022-07-29T18:32:40;3.55;;;2.90;;
19554;SDS011;9924;50.828;6.440;2022-07-29T18:35:06;6.75;;;3.08;;
19554;SDS011;9924;50.828;6.440;2022-07-29T18:37:32;6.93;;;3.10;;
19554;SDS011;9924;50.828;6.440;2022-07-29T18:40:00;5.88;;;2.83;;
19554;SDS011;9924;50.828;6.440;2022-07-29T18:42:26;7.47;;;2.65;;
19554;SDS011;9924;50.828;6.440;2022-07-29T18:44:51;7.50;;;2.67;;
19554;SDS011;9924;50.828;6.440;2022-07-29T18:47:18;8.35;;;2.78;;
19554;SDS011;9924;50.828;6.440;2022-07-29T18:49:44;3.55;;;2.50;;
19554;SDS011;9924;50.828;6.440;2022-07-29T18:52:10;5.93;;;2.20;;
19554;SDS011;9924;50.828;6.440;2022-07-29T18:54:36;3.35;;;2.50;;
19554;SDS011;9924;50.828;6.440;2022-07-29T18:57:02;3.72;;;2.47;;
19554;SDS011;9924;50.828;6.440;2022-07-29T18:59:28;3.88;;;2.40;;
19554;SDS011;9924;50.828;6.440;2022-07-29T19:01:54;4.13;;;2.50;;
19554;SDS011;9924;50.828;6.440;2022-07-29T19:04:20;4.80;;;2.88;;
19554;SDS011;9924;50.828;6.440;2022-07-29T19:06:46;5.15;;;2.42;;
19554;SDS011;9924;50.828;6.440;2022-07-29T19:09:12;3.30;;;2.45;;
19554;SDS011;9924;50.828;6.440;2022-07-29T19:11:38;7.22;;;2.17;;
19554;SDS011;9924;50.828;6.440;2022-07-29T19:14:04;3.15;;;2.10;;
19554;SDS011;9924;50.828;6.440;2022-07-29T19:16:30;5.18;;;2.30;;
19554;SDS011;9924;50.828;6.440;2022-07-29T19:18:57;4.53;;;2.50;;
19554;SDS011;9924;50.828;6.440;2022-07-29T19:21:25;3.17;;;2.20;;
19554;SDS011;9924;50.828;6.440;2022-07-29T19:23:54;5.70;;;2.80;;
19554;SDS011;9924;50.828;6.440;2022-07-29T19:26:20;5.65;;;2.42;;
19554;SDS011;9924;50.828;6.440;2022-07-29T19:28:47;7.68;;;3.25;;
19554;SDS011;9924;50.828;6.440;2022-07-29T19:31:13;5.60;;;2.47;;
19554;SDS011;9924;50.828;6.440;2022-07-29T19:33:39;3.38;;;2.40;;
19554;SDS011;9924;50.828;6.440;2022-07-29T19:36:04;3.53;;;2.72;;
19554;SDS011;9924;50.828;6.440;2022-07-29T19:38:31;3.33;;;2.60;;
19554;SDS011;9924;50.828;6.440;2022-07-29T19:40:56;5.10;;;2.65;;
19554;SDS011;9924;50.828;6.440;2022-07-29T19:43:22;4.22;;;2.08;;
19554;SDS011;9924;50.828;6.440;2022-07-29T19:45:48;3.72;;;2.20;;
19554;SDS011;9924;50.828;6.440;2022-07-29T19:48:15;2.40;;;1.98;;
19554;SDS011;9924;50.828;6.440;2022-07-29T19:50:40;3.42;;;2.05;;